• Join FlightAware (Why Join?)
  • Login
  • US Flag 
08:52PM EST


 

Airport Tracker/Info


-or-


 

Live Flight TrackerFlight Track Log ✈ SWA3675 ✈ 05-May-2013 ✈ KBWI - KORF

Flight Track Log - Related Links

Times and Time Zones

All times are in EDT time to prevent confusion due to time zone crossing. See the SWA3675 flight status page for this flight to view local times or setup timezone preferences in your user account.

Time Position Orientation Groundspeed Altitude Reporting Facility
EDT Latitude Longitude Course Direction KTS MPH feet Rate Location/Type
07:53PM 39.1500 -76.6500 142° Southeast 145 167 1,700  Level Potomac TRACON
07:54PM 39.1167 -76.6167 142° Southeast 189 217 3,800 2,400 Climbing Potomac TRACON
07:55PM 39.0500 -76.5667 150° Southeast 251 289 6,500 3,180 Climbing Potomac TRACON
07:56PM 38.9833 -76.5333 159° South 274 315 10,600 3,360 Climbing Potomac TRACON
07:57PM 38.9000 -76.5167 171° South 330 380 13,300 1,680 Climbing Potomac TRACON
07:58PM 38.8000 -76.5167 180° South 340 391 14,000 240 Climbing Potomac TRACON
08:00PM 38.6756 -76.6233 214° Southwest 354 407 14,000  Level Washington Center
08:01PM 38.5997 -76.6914 215° Southwest 349 402 14,000  Level Washington Center
08:02PM 38.5161 -76.7219 196° South 316 364 14,000  Level Washington Center
08:03PM 38.4244 -76.7100 174° South 321 369 14,000  Level Washington Center
08:04PM 38.3328 -76.6981 174° South 326 375 14,000  Level Washington Center
08:05PM 38.2433 -76.6836 173° South 331 381 14,000  Level Washington Center
08:06PM 38.1494 -76.6717 174° South 331 381 14,000  Level Washington Center
08:07PM 38.0600 -76.6650 177° South 331 381 14,000  Level Washington Center
08:08PM 37.9769 -76.6167 155° Southeast 331 381 14,000  Level Washington Center
08:09PM 37.8961 -76.5550 149° Southeast 326 375 14,000  Level Washington Center
08:10PM 37.8194 -76.4961 149° Southeast 332 382 14,000 -120 Level Washington Center
08:10PM 37.7633 -76.4586 152° Southeast 331 381 13,800 -300 Descending Washington Center
08:11PM 37.7489 -76.4428 139° Southeast 327 376 13,700 -1,440 Descending Washington Center
08:11PM 37.6908 -76.4053 153° Southeast 293 337 12,400 -1,740 Descending Washington Center
08:12PM 37.6722 -76.3867 142° Southeast 314 361 12,000 -1,500 Descending Washington Center
08:12PM 37.6117 -76.3808 176° South 290 334 10,900 -1,500 Descending Washington Center
08:13PM 37.5908 -76.3728 163° South 300 345 10,600 -900 Descending Washington Center
08:13PM 37.5306 -76.3644 174° South 302 348 10,000 -600 Descending Washington Center
08:14PM 37.5139 -76.3564 159° South 298 343 10,000  Level Washington Center
08:14PM 37.4492 -76.3453 172° South 299 344 10,000  Level Washington Center
08:15PM 37.4264 -76.3372 164° South 298 343 10,000  Level Washington Center
08:15PM 37.3639 -76.3286 174° South 299 344 10,000  Level Washington Center
08:16PM 37.3431 -76.3208 163° South 298 343 10,000  Level Washington Center
08:16PM 37.2889 -76.3150 175° South 277 319 10,000  Level Washington Center
08:17PM 37.2681 -76.3069 163° South 293 337 10,000 -1,260 Level Washington Center
08:18PM 37.1992 -76.2933 171° South 287 330 8,400 -1,680 Descending Washington Center
08:18PM 37.1386 -76.2850 174° South 274 315 7,200 -1,380 Descending Washington Center
08:19PM 37.1242 -76.2794 163° South 282 325 7,100 -1,080 Descending Washington Center
08:19PM 37.0719 -76.2739 175° South 262 302 6,200 -1,620 Descending Washington Center
08:20PM 36.9969 -76.2578 170° South 257 296 4,400 -1,500 Descending Washington Center
08:21PM 36.9239 -76.2647 184° South 269 310 3,200 -720 Descending Washington Center
08:22PM 36.8756 -76.3292 227° Southwest 236 272 3,000 -120 Descending Washington Center
08:23PM 36.8272 -76.3833 222° Southwest 233 268 3,000 -300 Level Washington Center
08:24PM 36.7728 -76.4114 202° Southwest 189 217 2,500 -660 Descending Washington Center
08:25PM 36.7522 -76.3644 119° Southeast 138 159 1,600 -480 Descending Washington Center
08:26PM 36.7733 -76.3206 59° Northeast 146 168 1,600  Level Washington Center
08:27PM 36.8069 -76.2897 36° Northeast 152 175 1,600 -180 Level Washington Center
08:29PM 36.8406 -76.2564 38° Northeast 138 159 1,300 -480 Descending Washington Center
08:30PM 36.8678 -76.2281 40° Northeast 121 139 600 -720 Descending Washington Center